Terminal Aerodrome Forecast
Issued by NWS

Current Version | Previous Version | Text Only | Print | Product List | Glossary On
Versions: 1 2 3 4 5 6 7 8 9 10 11 12 13 14 15 16 17 18 19
000
FTUS41 KGYX 302320
TAFRKD
TAF
KRKD 302320Z 0100/0124 18005KT P6SM BKN100
     FM010500 VRB03KT 3SM BR SCT007 BKN080
     FM011300 13009KT P6SM OVC040
     FM011600 12009KT 4SM -RA BR OVC030
      AMD LTD TO CLD VIS AND WIND=

USA.gov is the U.S. government's official web portal to all federal, state and local government web resources and services.